createdAt,value
2023-03-25T00:01:32.811Z,17.31
2023-03-25T00:04:01.856Z,17.24
2023-03-25T00:06:29.432Z,17.40
2023-03-25T00:08:57.713Z,17.38
2023-03-25T00:11:32.941Z,17.45
2023-03-25T00:14:00.640Z,17.61
2023-03-25T00:16:28.274Z,17.37
2023-03-25T00:19:00.144Z,17.08
2023-03-25T00:21:27.802Z,17.44
2023-03-25T00:23:56.472Z,17.41
2023-03-25T00:26:24.080Z,17.34
2023-03-25T00:28:52.685Z,17.40
2023-03-25T00:31:20.312Z,17.46
2023-03-25T00:33:50.719Z,17.26
2023-03-25T00:36:18.467Z,17.09
2023-03-25T00:38:49.441Z,17.30
2023-03-25T00:41:18.498Z,17.28
2023-03-25T00:43:46.238Z,17.03
2023-03-25T00:46:16.354Z,17.02
2023-03-25T00:48:44.168Z,17.01
2023-03-25T00:51:14.777Z,16.87
2023-03-25T00:53:42.440Z,16.84
2023-03-25T00:56:14.896Z,16.86
2023-03-25T00:58:42.454Z,16.84
2023-03-25T01:01:14.242Z,16.56
2023-03-25T01:03:45.624Z,16.71
2023-03-25T01:06:17.145Z,16.52
2023-03-25T01:08:45.985Z,16.51
2023-03-25T01:11:22.408Z,16.53
2023-03-25T01:13:52.529Z,16.30
2023-03-25T01:16:20.172Z,16.22
2023-03-25T01:18:49.878Z,16.26
2023-03-25T01:21:18.991Z,16.10
2023-03-25T01:23:47.960Z,16.17
2023-03-25T01:26:16.312Z,16.03
2023-03-25T01:28:45.024Z,16.21
2023-03-25T01:31:15.237Z,15.93
2023-03-25T01:33:43.121Z,15.69
2023-03-25T01:36:13.034Z,15.30
2023-03-25T01:38:41.865Z,15.38
2023-03-25T01:41:11.253Z,15.57
2023-03-25T01:43:39.149Z,15.62
2023-03-25T01:46:14.233Z,15.65
2023-03-25T01:48:45.228Z,15.65
2023-03-25T01:51:30.951Z,15.58
2023-03-25T01:53:58.709Z,15.77
2023-03-25T01:56:32.056Z,15.59
2023-03-25T01:59:03.135Z,15.74
2023-03-25T02:01:32.035Z,15.67
2023-03-25T02:04:10.062Z,15.96
2023-03-25T02:06:53.065Z,15.98
2023-03-25T02:09:26.131Z,15.88
2023-03-25T02:11:56.510Z,15.80
2023-03-25T02:14:35.060Z,15.92
2023-03-25T02:17:37.667Z,15.89
2023-03-25T02:20:21.667Z,15.77
2023-03-25T02:23:23.144Z,15.67
2023-03-25T02:26:00.414Z,15.50
2023-03-25T02:28:57.444Z,15.38
2023-03-25T02:31:45.630Z,15.04
2023-03-25T02:34:37.960Z,14.86
2023-03-25T02:37:06.275Z,15.00
2023-03-25T02:39:48.098Z,15.08
2023-03-25T02:42:22.964Z,14.82
2023-03-25T02:45:10.336Z,15.03
2023-03-25T02:47:47.592Z,15.18
2023-03-25T02:50:21.297Z,14.97
2023-03-25T02:52:55.819Z,14.96
2023-03-25T02:55:25.870Z,14.89
2023-03-25T02:57:57.353Z,14.75
2023-03-25T03:00:28.758Z,14.90
2023-03-25T03:03:02.121Z,14.89
2023-03-25T03:05:43.975Z,14.96
2023-03-25T03:08:21.630Z,15.13
2023-03-25T03:11:17.037Z,14.94
2023-03-25T03:13:50.730Z,14.82
2023-03-25T03:16:33.342Z,15.04
2023-03-25T03:19:34.465Z,15.04
2023-03-25T03:22:35.776Z,15.01
2023-03-25T03:25:09.245Z,15.10
2023-03-25T03:27:50.055Z,14.87
2023-03-25T03:30:27.331Z,14.91
2023-03-25T03:33:01.273Z,15.09
2023-03-25T03:35:33.875Z,15.17
2023-03-25T03:38:09.623Z,15.20
2023-03-25T03:40:40.288Z,15.32
2023-03-25T03:43:16.895Z,15.44
2023-03-25T03:45:52.032Z,15.18
2023-03-25T03:48:26.070Z,15.20
2023-03-25T03:51:03.303Z,15.35
2023-03-25T03:53:38.368Z,15.31
2023-03-25T03:56:11.306Z,15.09
2023-03-25T03:58:43.183Z,15.24
2023-03-25T04:01:30.813Z,15.27
2023-03-25T04:04:06.446Z,15.17
2023-03-25T04:06:42.260Z,15.15
2023-03-25T04:09:27.749Z,14.99
2023-03-25T04:12:03.049Z,15.32
2023-03-25T04:14:30.915Z,15.18
2023-03-25T04:16:59.901Z,15.20
2023-03-25T04:19:27.621Z,15.16
2023-03-25T04:21:56.205Z,15.09
2023-03-25T04:24:26.885Z,15.09
2023-03-25T04:26:57.890Z,15.03
2023-03-25T04:29:26.310Z,15.13
2023-03-25T04:31:56.428Z,15.17
2023-03-25T04:34:24.963Z,15.09
2023-03-25T04:36:55.193Z,15.06
2023-03-25T04:39:24.381Z,15.06
2023-03-25T04:42:05.120Z,15.13
2023-03-25T04:44:39.404Z,15.18
2023-03-25T04:47:14.160Z,15.28
2023-03-25T04:49:45.364Z,15.20
2023-03-25T04:52:12.941Z,15.06
2023-03-25T04:54:40.633Z,15.12
2023-03-25T04:57:11.140Z,15.31
2023-03-25T04:59:38.908Z,15.34
2023-03-25T05:02:07.108Z,15.16
2023-03-25T05:04:34.867Z,15.14
2023-03-25T05:07:02.575Z,15.07
2023-03-25T05:09:30.407Z,15.13
2023-03-25T05:11:58.000Z,15.02
2023-03-25T05:14:30.682Z,14.92
2023-03-25T05:17:00.436Z,14.78
2023-03-25T05:19:29.016Z,14.89
2023-03-25T05:22:01.659Z,15.09
2023-03-25T05:24:29.447Z,15.10
2023-03-25T05:26:57.097Z,15.14
2023-03-25T05:29:24.789Z,15.09
2023-03-25T05:31:53.670Z,14.98
2023-03-25T05:34:21.252Z,14.97
2023-03-25T05:36:51.055Z,14.80
2023-03-25T05:39:19.185Z,14.74
2023-03-25T05:41:47.968Z,15.07
2023-03-25T05:44:18.982Z,14.87
2023-03-25T05:46:53.978Z,15.10
2023-03-25T05:49:21.948Z,14.79
2023-03-25T05:51:54.299Z,15.04
2023-03-25T05:54:28.759Z,15.13
2023-03-25T05:56:56.470Z,15.01
2023-03-25T05:59:24.240Z,15.12
2023-03-25T06:01:51.854Z,15.14
2023-03-25T06:04:21.953Z,15.05
2023-03-25T06:06:49.874Z,15.20
2023-03-25T06:09:19.075Z,15.12
2023-03-25T06:11:53.488Z,15.46
2023-03-25T06:14:25.675Z,15.49
2023-03-25T06:16:53.482Z,15.54
2023-03-25T06:19:28.260Z,15.46
2023-03-25T06:22:23.320Z,15.65
2023-03-25T06:25:23.373Z,15.72
2023-03-25T06:28:00.990Z,15.72
2023-03-25T06:34:42.516Z,15.99
2023-03-25T06:37:48.513Z,16.12
2023-03-25T06:43:45.292Z,16.24
2023-03-25T06:47:08.127Z,16.50
2023-03-25T06:54:37.558Z,16.67
2023-03-25T07:01:39.491Z,16.92
2023-03-25T07:05:24.606Z,17.12
2023-03-25T07:08:11.290Z,17.31
2023-03-25T07:10:43.790Z,17.47
2023-03-25T07:13:24.108Z,17.63
2023-03-25T07:15:58.104Z,17.46
2023-03-25T07:18:33.051Z,17.97
2023-03-25T07:21:03.990Z,19.32
2023-03-25T07:23:47.567Z,20.86
2023-03-25T07:26:21.792Z,21.72
2023-03-25T07:29:30.771Z,21.36
2023-03-25T07:32:03.571Z,22.26
2023-03-25T07:35:28.185Z,21.77
2023-03-25T07:38:07.218Z,22.38
2023-03-25T07:41:13.831Z,23.39
2023-03-25T07:43:59.254Z,23.12
2023-03-25T07:46:29.051Z,23.66
2023-03-25T07:53:06.258Z,23.51
2023-03-25T07:55:39.486Z,23.58
2023-03-25T07:58:09.036Z,24.43
2023-03-25T08:00:39.470Z,23.42
2023-03-25T08:03:14.540Z,24.43
2023-03-25T08:05:51.964Z,24.92
2023-03-25T08:08:20.437Z,25.28
2023-03-25T08:11:59.602Z,24.56
2023-03-25T08:14:27.753Z,25.45
2023-03-25T08:16:58.219Z,25.01
2023-03-25T08:19:26.082Z,25.31
2023-03-25T08:21:53.975Z,25.74
2023-03-25T08:24:21.755Z,26.14
2023-03-25T08:27:59.820Z,26.30
2023-03-25T08:30:27.681Z,26.36
2023-03-25T08:33:10.169Z,26.40
2023-03-25T08:36:01.857Z,26.42
2023-03-25T08:38:34.620Z,27.71
2023-03-25T08:41:03.643Z,27.33
2023-03-25T08:43:36.754Z,27.37
2023-03-25T08:46:04.564Z,27.22
2023-03-25T08:48:34.451Z,26.88
2023-03-25T08:51:13.912Z,27.81
2023-03-25T08:53:42.146Z,28.33
2023-03-25T08:56:12.070Z,27.92
2023-03-25T08:58:40.924Z,26.82
2023-03-25T09:01:08.711Z,26.60
2023-03-25T09:03:38.638Z,26.71
2023-03-25T09:06:10.085Z,26.52
2023-03-25T09:08:37.526Z,28.00
2023-03-25T09:11:36.430Z,28.55
2023-03-25T09:14:05.277Z,28.05
2023-03-25T09:17:08.628Z,28.28
2023-03-25T09:20:15.406Z,27.06
2023-03-25T09:26:28.970Z,26.96
2023-03-25T09:28:56.827Z,27.61
2023-03-25T09:31:34.012Z,27.01
2023-03-25T09:34:34.081Z,27.85
2023-03-25T09:37:04.635Z,27.84
2023-03-25T09:39:32.160Z,27.33
2023-03-25T09:42:02.436Z,27.63
2023-03-25T09:44:52.118Z,28.89
2023-03-25T09:47:21.966Z,27.70
2023-03-25T09:49:54.397Z,27.29
2023-03-25T09:52:28.331Z,28.82
2023-03-25T09:55:04.202Z,28.52
2023-03-25T09:57:37.805Z,27.75
2023-03-25T10:00:07.015Z,27.92
2023-03-25T10:02:47.010Z,27.50
2023-03-25T10:05:33.959Z,28.61
2023-03-25T10:08:26.835Z,26.89
2023-03-25T10:11:06.763Z,26.44
2023-03-25T10:13:43.738Z,25.82
2023-03-25T10:16:21.082Z,26.54
2023-03-25T10:19:22.835Z,24.44
2023-03-25T10:21:57.359Z,25.49
2023-03-25T10:24:30.881Z,26.13
2023-03-25T10:27:05.692Z,25.80
2023-03-25T10:29:50.449Z,25.68
2023-03-25T10:32:31.547Z,26.01
2023-03-25T10:35:00.782Z,26.20
2023-03-25T10:37:33.846Z,26.20
2023-03-25T10:40:16.579Z,25.59
2023-03-25T10:42:59.982Z,25.80
2023-03-25T10:45:29.073Z,25.75
2023-03-25T10:48:23.399Z,27.22
2023-03-25T10:50:53.624Z,26.03
2023-03-25T10:53:25.449Z,26.50
2023-03-25T10:56:20.322Z,25.34
2023-03-25T10:58:52.319Z,25.85
2023-03-25T11:01:28.456Z,25.74
2023-03-25T11:03:59.463Z,25.83
2023-03-25T11:06:30.942Z,25.94
2023-03-25T11:09:23.545Z,25.29
2023-03-25T11:11:53.706Z,25.79
2023-03-25T11:14:26.275Z,25.62
2023-03-25T11:17:00.356Z,25.89
2023-03-25T11:19:49.772Z,25.44
2023-03-25T11:22:22.655Z,25.26
2023-03-25T11:24:54.694Z,25.04
2023-03-25T11:27:25.264Z,25.15
2023-03-25T11:29:56.984Z,25.15
2023-03-25T11:32:33.414Z,25.21
2023-03-25T11:35:16.681Z,24.88
2023-03-25T11:37:47.162Z,25.34
2023-03-25T11:40:18.874Z,24.82
2023-03-25T11:42:53.004Z,24.34
2023-03-25T11:45:35.493Z,24.91
2023-03-25T11:48:17.887Z,24.71
2023-03-25T11:50:54.362Z,24.76
2023-03-25T11:56:12.039Z,24.70
2023-03-25T11:58:43.404Z,25.12
2023-03-25T12:01:28.508Z,24.92
2023-03-25T12:04:23.528Z,24.93
2023-03-25T12:07:00.445Z,25.24
2023-03-25T12:09:31.471Z,25.27
2023-03-25T12:12:46.868Z,25.39
2023-03-25T12:15:25.149Z,25.26
2023-03-25T12:18:33.807Z,24.91
2023-03-25T12:21:03.920Z,25.11
2023-03-25T12:23:39.527Z,25.02
2023-03-25T12:27:02.386Z,24.83
2023-03-25T12:29:41.989Z,24.92
2023-03-25T12:32:27.491Z,24.93
2023-03-25T12:34:57.705Z,24.97
2023-03-25T12:37:27.776Z,24.98
2023-03-25T12:40:26.229Z,24.69
2023-03-25T12:43:09.992Z,24.92
2023-03-25T12:45:52.738Z,24.73
2023-03-25T12:48:38.487Z,24.20
2023-03-25T12:51:37.373Z,24.08
2023-03-25T12:54:32.446Z,24.39
2023-03-25T12:56:59.826Z,24.21
2023-03-25T12:59:41.749Z,24.49
2023-03-25T13:02:20.515Z,24.37
2023-03-25T13:04:55.076Z,24.54
2023-03-25T13:07:27.820Z,24.66
2023-03-25T13:10:18.516Z,24.63
2023-03-25T13:12:58.648Z,24.26
2023-03-25T13:15:38.598Z,24.03
2023-03-25T13:18:56.017Z,24.30
2023-03-25T13:21:29.020Z,24.01
2023-03-25T13:24:02.049Z,24.02
2023-03-25T13:26:32.087Z,24.28
2023-03-25T13:29:06.191Z,23.96
2023-03-25T13:31:37.459Z,24.15
2023-03-25T13:34:31.743Z,23.98
2023-03-25T13:37:22.510Z,24.14
2023-03-25T13:40:01.174Z,23.82
2023-03-25T13:43:10.476Z,24.20
2023-03-25T13:46:08.540Z,23.90
2023-03-25T13:48:43.951Z,24.01
2023-03-25T13:51:13.764Z,23.86
2023-03-25T13:53:59.774Z,23.77
2023-03-25T13:56:59.445Z,23.83
2023-03-25T13:59:52.140Z,23.86
2023-03-25T14:02:41.940Z,23.81
2023-03-25T14:05:49.515Z,23.90
2023-03-25T14:08:30.489Z,23.91
2023-03-25T14:11:22.429Z,24.11
2023-03-25T14:14:06.343Z,23.99
2023-03-25T14:16:38.333Z,24.16
2023-03-25T14:19:18.222Z,23.85
2023-03-25T14:21:49.870Z,23.94
2023-03-25T14:24:33.365Z,23.88
2023-03-25T14:27:04.807Z,23.66
2023-03-25T14:29:37.829Z,23.56
2023-03-25T14:32:05.287Z,23.44
2023-03-25T14:34:33.520Z,23.77
2023-03-25T14:37:04.903Z,23.73
2023-03-25T14:39:32.911Z,23.89
2023-03-25T14:42:13.380Z,23.64
2023-03-25T14:44:42.990Z,23.81
2023-03-25T14:47:17.156Z,23.61
2023-03-25T14:49:50.142Z,23.64
2023-03-25T14:52:22.598Z,23.78
2023-03-25T14:54:56.822Z,23.34
2023-03-25T14:57:26.866Z,23.43
2023-03-25T15:00:17.507Z,23.59
2023-03-25T15:02:52.571Z,23.45
2023-03-25T15:05:26.414Z,23.26
2023-03-25T15:08:12.404Z,23.25
2023-03-25T15:10:48.529Z,23.51
2023-03-25T15:13:33.298Z,23.29
2023-03-25T15:16:05.517Z,23.17
2023-03-25T15:18:35.813Z,23.14
2023-03-25T15:21:14.516Z,23.31
2023-03-25T15:24:11.003Z,23.21
2023-03-25T15:26:46.456Z,23.24
2023-03-25T15:29:25.026Z,23.14
2023-03-25T15:32:21.006Z,22.67
2023-03-25T15:34:58.256Z,22.66
2023-03-25T15:37:46.656Z,22.58
2023-03-25T15:40:22.607Z,22.83
2023-03-25T15:43:11.137Z,22.96
2023-03-25T15:45:54.153Z,22.81
2023-03-25T15:48:33.605Z,22.83
2023-03-25T15:51:13.609Z,22.70
2023-03-25T15:54:28.120Z,22.66
2023-03-25T15:57:02.910Z,22.71
2023-03-25T15:59:42.934Z,22.87
2023-03-25T16:02:36.162Z,22.68
2023-03-25T16:05:05.785Z,22.98
2023-03-25T16:07:34.974Z,22.45
2023-03-25T16:10:14.762Z,22.60
2023-03-25T16:12:45.565Z,22.64
2023-03-25T16:15:19.019Z,22.21
2023-03-25T16:17:46.982Z,22.32
2023-03-25T16:20:18.799Z,22.36
2023-03-25T16:22:51.085Z,22.45
2023-03-25T16:25:23.370Z,22.21
2023-03-25T16:27:53.229Z,22.43
2023-03-25T16:30:32.966Z,22.38
2023-03-25T16:33:12.258Z,22.43
2023-03-25T16:35:47.421Z,22.13
2023-03-25T16:38:21.733Z,22.44
2023-03-25T16:40:50.584Z,22.24
2023-03-25T16:43:24.472Z,22.40
2023-03-25T16:45:57.668Z,22.36
2023-03-25T16:48:37.528Z,22.17
2023-03-25T16:51:29.087Z,22.22
2023-03-25T16:54:02.433Z,22.24
2023-03-25T16:56:31.722Z,22.22
2023-03-25T16:59:05.194Z,22.23
2023-03-25T17:01:38.581Z,22.23
2023-03-25T17:04:39.306Z,22.18
2023-03-25T17:07:12.542Z,21.85
2023-03-25T17:09:44.213Z,22.03
2023-03-25T17:12:19.049Z,21.97
2023-03-25T17:14:49.079Z,21.91
2023-03-25T17:17:32.161Z,21.71
2023-03-25T17:20:08.971Z,21.67
2023-03-25T17:22:39.551Z,21.53
2023-03-25T17:25:29.625Z,21.57
2023-03-25T17:28:04.377Z,21.27
2023-03-25T17:30:43.654Z,21.19
2023-03-25T17:33:13.944Z,21.10
2023-03-25T17:35:44.047Z,21.04
2023-03-25T17:38:21.394Z,20.88
2023-03-25T17:40:58.469Z,20.89
2023-03-25T17:43:27.828Z,20.77
2023-03-25T17:45:55.543Z,20.73
2023-03-25T17:48:23.484Z,20.63
2023-03-25T17:50:56.975Z,20.51
2023-03-25T17:53:25.468Z,20.45
2023-03-25T17:55:54.227Z,20.15
2023-03-25T17:58:24.001Z,20.08
2023-03-25T18:00:55.419Z,19.93
2023-03-25T18:03:23.980Z,19.76
2023-03-25T18:05:54.329Z,19.76
2023-03-25T18:08:32.077Z,19.62
2023-03-25T18:11:02.690Z,19.55
2023-03-25T18:13:33.493Z,19.50
2023-03-25T18:16:01.377Z,19.42
2023-03-25T18:18:28.889Z,19.41
2023-03-25T18:20:56.373Z,19.27
2023-03-25T18:23:25.905Z,19.44
2023-03-25T18:26:00.449Z,19.23
2023-03-25T18:28:28.364Z,19.19
2023-03-25T18:30:59.614Z,19.05
2023-03-25T18:33:27.658Z,19.05
2023-03-25T18:35:59.030Z,19.01
2023-03-25T18:38:32.342Z,18.95
2023-03-25T18:41:01.206Z,18.72
2023-03-25T18:43:30.632Z,18.63
2023-03-25T18:45:58.104Z,18.63
2023-03-25T18:48:25.757Z,18.27
2023-03-25T18:50:56.137Z,18.01
2023-03-25T18:53:26.336Z,18.28
2023-03-25T18:56:05.131Z,18.34
2023-03-25T18:58:37.314Z,18.17
2023-03-25T19:01:09.832Z,17.86
2023-03-25T19:03:49.380Z,18.16
2023-03-25T19:06:19.132Z,17.76
2023-03-25T19:08:47.678Z,17.18
2023-03-25T19:11:20.764Z,17.26
2023-03-25T19:13:51.043Z,17.22
2023-03-25T19:16:19.908Z,17.49
2023-03-25T19:18:47.725Z,17.14
2023-03-25T19:21:19.832Z,16.92
2023-03-25T19:23:48.237Z,17.15
2023-03-25T19:26:15.785Z,17.08
2023-03-25T19:28:43.221Z,17.20
2023-03-25T19:31:15.826Z,17.39
2023-03-25T19:33:43.445Z,16.90
2023-03-25T19:36:19.022Z,16.62
2023-03-25T19:38:46.773Z,16.27
2023-03-25T19:41:21.617Z,16.76
2023-03-25T19:43:59.373Z,16.68
2023-03-25T19:46:29.102Z,16.29
2023-03-25T19:49:00.559Z,16.48
2023-03-25T19:51:28.034Z,16.28
2023-03-25T19:53:55.433Z,16.07
2023-03-25T19:56:22.930Z,16.01
2023-03-25T19:58:50.486Z,15.86
2023-03-25T20:01:18.251Z,15.76
2023-03-25T20:03:45.907Z,15.74
2023-03-25T20:06:14.264Z,15.67
2023-03-25T20:08:43.087Z,15.69
2023-03-25T20:11:16.456Z,15.35
2023-03-25T20:13:46.749Z,15.58
2023-03-25T20:16:14.452Z,15.54
2023-03-25T20:18:42.215Z,15.55
2023-03-25T20:21:09.855Z,15.51
2023-03-25T20:23:37.401Z,15.25
2023-03-25T20:26:05.671Z,15.45
2023-03-25T20:28:33.657Z,15.63
2023-03-25T20:31:01.118Z,15.46
2023-03-25T20:33:29.160Z,15.11
2023-03-25T20:35:56.654Z,15.12
2023-03-25T20:38:24.032Z,15.04
2023-03-25T20:40:54.510Z,15.61
2023-03-25T20:43:22.027Z,15.09
2023-03-25T20:45:54.729Z,15.36
2023-03-25T20:48:23.281Z,15.02
2023-03-25T20:51:01.780Z,15.22
2023-03-25T20:53:30.188Z,14.89
2023-03-25T20:56:00.390Z,14.86
2023-03-25T20:58:29.189Z,15.00
2023-03-25T21:00:58.970Z,14.83
2023-03-25T21:03:27.288Z,14.77
2023-03-25T21:06:07.385Z,14.56
2023-03-25T21:08:38.573Z,14.58
2023-03-25T21:11:06.905Z,14.69
2023-03-25T21:13:34.931Z,14.36
2023-03-25T21:16:02.583Z,14.36
2023-03-25T21:18:30.202Z,14.56
2023-03-25T21:21:00.042Z,14.56
2023-03-25T21:23:33.660Z,14.34
2023-03-25T21:26:04.511Z,14.59
2023-03-25T21:28:32.188Z,14.67
2023-03-25T21:31:17.577Z,14.90
2023-03-25T21:33:50.790Z,14.99
2023-03-25T21:36:22.971Z,14.84
2023-03-25T21:38:52.394Z,14.87
2023-03-25T21:41:19.828Z,15.13
2023-03-25T21:43:47.595Z,15.08
2023-03-25T21:46:15.421Z,14.74
2023-03-25T21:48:45.100Z,14.93
2023-03-25T21:51:15.698Z,15.16
2023-03-25T21:53:46.286Z,15.14
2023-03-25T21:56:17.921Z,15.09
2023-03-25T21:58:47.103Z,14.85
2023-03-25T22:01:17.201Z,14.98
2023-03-25T22:03:47.393Z,14.96
2023-03-25T22:06:20.938Z,14.81
2023-03-25T22:08:48.532Z,14.77
2023-03-25T22:11:24.897Z,14.92
2023-03-25T22:13:52.344Z,15.05
2023-03-25T22:16:21.026Z,14.94
2023-03-25T22:18:49.402Z,14.94
2023-03-25T22:21:16.798Z,15.26
2023-03-25T22:23:46.295Z,15.09
2023-03-25T22:26:16.212Z,15.02
2023-03-25T22:28:44.567Z,14.83
2023-03-25T22:31:15.862Z,15.08
2023-03-25T22:33:44.095Z,15.31
2023-03-25T22:36:14.706Z,15.11
2023-03-25T22:38:44.779Z,14.73
2023-03-25T22:41:14.553Z,14.87
2023-03-25T22:43:42.944Z,15.20
2023-03-25T22:46:10.579Z,14.80
2023-03-25T22:48:39.420Z,14.68
2023-03-25T22:51:08.102Z,14.93
2023-03-25T22:53:36.003Z,15.06
2023-03-25T22:56:04.067Z,14.89
2023-03-25T22:58:32.345Z,14.72
2023-03-25T23:01:02.063Z,14.99
2023-03-25T23:03:29.873Z,15.03
2023-03-25T23:05:57.688Z,14.88
2023-03-25T23:08:30.123Z,14.80
2023-03-25T23:11:03.351Z,14.58
2023-03-25T23:13:31.115Z,14.45
2023-03-25T23:16:00.725Z,14.75
2023-03-25T23:18:28.790Z,15.01
2023-03-25T23:20:56.903Z,15.08
2023-03-25T23:23:24.845Z,14.98
2023-03-25T23:26:09.458Z,14.72
2023-03-25T23:28:38.037Z,14.82
2023-03-25T23:31:11.690Z,14.69
2023-03-25T23:33:40.671Z,14.35
2023-03-25T23:36:09.862Z,14.24
2023-03-25T23:38:38.322Z,14.06
2023-03-25T23:41:09.145Z,13.84
2023-03-25T23:43:37.250Z,13.86
2023-03-25T23:46:06.488Z,13.75
2023-03-25T23:48:41.340Z,13.75
2023-03-25T23:51:14.684Z,13.40
2023-03-25T23:53:43.929Z,13.33
2023-03-25T23:56:12.213Z,13.05
2023-03-25T23:58:44.534Z,13.25
